YPZ weather

Burns Lake Airport
Burns Lake, British Columbia, Canada

Public forecast

Using degrees Celsius for public forecast. Weather courtesy of forecast.io.

METAR (pilot weather report)

Closest report is Smithers Airport, 50.6 nm (93.7 km) WNW. Retrieved 2019/09/22 17:00 UTC (9 minutes ago):

CYYD 221700Z 34004KT 280V020 25SM FEW013 FEW060 11/08 A2977 RMK SF1SC1 SLP089 DENSITY ALT 1800FT

TAF (pilot weather forecast)

Closest forecast is Smithers Airport, 50.6 nm (93.7 km) WNW. Retrieved 2019/09/22 14:48 UTC (2 hours ago):

TAF TAF CYYD 221344Z 2214/2302 VRB03KT P6SM FEW008 OVC050 TEMPO 2214/2221 P6SM -RA SCT008 OVC030 BECMG 2219/2221 33008KT FM222100 33008KT P6SM BKN060 TEMPO 2221/2302 P6SM -SHRA RMK FCST BASED ON AUTO OBS. NXT FCST BY 221900Z